Main page
METAR-TAF:

METAR-TAF

Airports :

Barra do Garças Airport

Barra do Garças, Mato Grosso, Brazil

latitude: 15-52S, longitude: 052-23W, elevation: 350 m

Current weather observation

The report was made 10 hours and 52 minutes ago, at 21:00 UTC
Wind 8 kt from the West
Temperature 29°C
Humidity 66%
Pressure 1012 hPa
Visibility 10 km or more
Few clouds at a height of 2500 ft, Towering cumulus.
Scattered clouds at a height of 7000 ft
Broken clouds at a height of 10000 ft

METAR: SBBW 192100Z 27008KT 9999 FEW025TCU SCT070 BKN100 29/22 Q1012

Time: 03:52 (07:52 UTC)

Forecast

The report was made 3 hours and 52 minutes ago, at 04:00 UTC
Forecast valid from 20 at 06 UTC to 20 at 18 UTC
Wind 5 kt from the East
Visibility: 7000 m
Becoming
from 20 at 10 UTC to 20 at 12 UTC
Wind 5 kt from the North
Visibility 10 km or more
Scattered clouds at a height of 2000 ft

TAF: SBBW 200400Z 2006/2018 09005KT 7000 NSC TN22/2008Z TX33/2018Z BECMG 2010/2012 36005KT 9999 SCT020 RMK PDS

Weather observations and forecasts of more than 4000 airports (METAR and TAF reports).

The available stations are represented by yellow and red dots on the map.

Hover mouse over dot to see the name of the station.

Then click to see weather observations and forecasts.

To change the map : click on the green buttons with a black cross to zoom in, on the green button with a dash to zoom out, or on the green arrows for adjacent maps.


METAR-TAF: